createdAt,value
2023-04-23T00:01:22.475Z,4.50
2023-04-23T00:03:50.744Z,4.46
2023-04-23T00:06:17.999Z,4.39
2023-04-23T00:08:45.368Z,4.40
2023-04-23T00:11:12.535Z,4.44
2023-04-23T00:13:39.756Z,4.44
2023-04-23T00:16:07.393Z,4.39
2023-04-23T00:18:34.493Z,4.41
2023-04-23T00:21:01.375Z,4.37
2023-04-23T00:23:29.122Z,4.37
2023-04-23T00:25:56.067Z,4.34
2023-04-23T00:28:22.816Z,4.27
2023-04-23T00:30:49.921Z,4.19
2023-04-23T00:33:16.800Z,4.13
2023-04-23T00:35:43.589Z,4.09
2023-04-23T00:38:10.407Z,4.15
2023-04-23T00:40:37.250Z,4.20
2023-04-23T00:43:04.806Z,4.19
2023-04-23T00:45:31.645Z,4.16
2023-04-23T00:47:59.201Z,4.15
2023-04-23T00:50:26.176Z,4.09
2023-04-23T00:52:52.972Z,4.08
2023-04-23T00:55:21.500Z,4.05
2023-04-23T00:57:49.104Z,4.04
2023-04-23T01:00:16.382Z,4.01
2023-04-23T01:02:45.177Z,4.06
2023-04-23T01:05:14.730Z,4.05
2023-04-23T01:07:44.669Z,3.87
2023-04-23T01:10:12.271Z,3.85
2023-04-23T01:12:39.075Z,3.77
2023-04-23T01:15:07.642Z,3.74
2023-04-23T01:17:34.553Z,3.74
2023-04-23T01:20:01.506Z,3.76
2023-04-23T01:22:28.290Z,3.73
2023-04-23T01:24:55.560Z,3.75
2023-04-23T01:27:25.169Z,3.79
2023-04-23T01:29:52.487Z,3.79
2023-04-23T01:32:20.585Z,3.81
2023-04-23T01:34:48.422Z,3.89
2023-04-23T01:37:16.898Z,3.81
2023-04-23T01:39:43.542Z,3.70
2023-04-23T01:42:11.283Z,3.75
2023-04-23T01:44:38.258Z,3.72
2023-04-23T01:47:07.197Z,3.71
2023-04-23T01:49:34.495Z,3.66
2023-04-23T01:52:01.329Z,3.69
2023-04-23T01:54:28.113Z,3.62
2023-04-23T01:56:55.919Z,3.61
2023-04-23T01:59:23.148Z,3.58
2023-04-23T02:01:50.902Z,3.55
2023-04-23T02:04:18.585Z,3.51
2023-04-23T02:06:47.824Z,3.52
2023-04-23T02:09:15.010Z,3.49
2023-04-23T02:11:41.882Z,3.50
2023-04-23T02:14:09.972Z,3.46
2023-04-23T02:16:36.696Z,3.44
2023-04-23T02:19:03.876Z,3.41
2023-04-23T02:21:32.273Z,3.39
2023-04-23T02:23:59.083Z,3.38
2023-04-23T02:26:26.399Z,3.36
2023-04-23T02:28:53.109Z,3.35
2023-04-23T02:31:21.479Z,3.29
2023-04-23T02:33:48.558Z,3.29
2023-04-23T02:36:16.013Z,3.32
2023-04-23T02:38:44.933Z,3.33
2023-04-23T02:41:12.404Z,3.29
2023-04-23T02:43:39.473Z,3.27
2023-04-23T02:46:09.892Z,3.27
2023-04-23T02:48:38.962Z,3.27
2023-04-23T02:51:07.182Z,3.26
2023-04-23T02:53:33.973Z,3.23
2023-04-23T02:56:01.736Z,3.20
2023-04-23T02:58:29.302Z,3.16
2023-04-23T03:00:56.199Z,3.16
2023-04-23T03:03:26.968Z,3.21
2023-04-23T03:05:55.279Z,3.16
2023-04-23T03:08:22.202Z,3.10
2023-04-23T03:10:49.221Z,3.10
2023-04-23T03:13:16.421Z,3.07
2023-04-23T03:15:43.514Z,3.10
2023-04-23T03:18:10.355Z,3.09
2023-04-23T03:20:37.360Z,3.08
2023-04-23T03:23:06.667Z,3.05
2023-04-23T03:25:34.369Z,3.09
2023-04-23T03:28:01.961Z,3.10
2023-04-23T03:30:29.828Z,3.19
2023-04-23T03:32:57.525Z,3.09
2023-04-23T03:35:26.471Z,3.09
2023-04-23T03:37:53.697Z,3.06
2023-04-23T03:40:20.950Z,3.03
2023-04-23T03:42:50.953Z,3.04
2023-04-23T03:45:17.719Z,3.01
2023-04-23T03:47:44.952Z,3.04
2023-04-23T03:50:14.893Z,3.05
2023-04-23T03:52:41.902Z,3.05
2023-04-23T03:55:09.394Z,3.03
2023-04-23T03:57:37.180Z,2.97
2023-04-23T04:00:08.336Z,3.04
2023-04-23T04:02:35.391Z,3.02
2023-04-23T04:05:02.252Z,3.01
2023-04-23T04:07:29.792Z,3.03
2023-04-23T04:09:56.479Z,3.13
2023-04-23T04:12:23.203Z,3.12
2023-04-23T04:14:50.066Z,3.13
2023-04-23T04:17:16.859Z,3.13
2023-04-23T04:19:46.414Z,3.22
2023-04-23T04:22:13.110Z,3.28
2023-04-23T04:24:42.409Z,3.42
2023-04-23T04:27:09.600Z,3.42
2023-04-23T04:29:36.444Z,3.49
2023-04-23T04:32:05.479Z,3.62
2023-04-23T04:34:32.235Z,3.73
2023-04-23T04:36:59.194Z,3.90
2023-04-23T04:39:26.392Z,4.03
2023-04-23T04:41:57.586Z,4.14
2023-04-23T04:44:25.455Z,4.22
2023-04-23T04:46:52.934Z,4.27
2023-04-23T04:49:21.934Z,4.30
2023-04-23T04:51:48.875Z,4.34
2023-04-23T04:54:15.831Z,4.41
2023-04-23T04:56:42.551Z,4.59
2023-04-23T04:59:09.316Z,4.88
2023-04-23T05:01:37.509Z,5.17
2023-04-23T05:04:04.641Z,5.52
2023-04-23T05:06:32.632Z,5.86
2023-04-23T05:08:59.493Z,6.17
2023-04-23T05:11:26.355Z,6.49
2023-04-23T05:13:53.161Z,6.78
2023-04-23T05:16:19.931Z,7.12
2023-04-23T05:18:46.831Z,7.36
2023-04-23T05:21:15.565Z,7.69
2023-04-23T05:23:42.281Z,7.98
2023-04-23T05:26:09.360Z,8.29
2023-04-23T05:28:36.717Z,8.58
2023-04-23T05:31:03.659Z,8.92
2023-04-23T05:33:33.493Z,9.21
2023-04-23T05:36:06.374Z,9.51
2023-04-23T05:38:33.479Z,9.75
2023-04-23T05:41:00.456Z,10.03
2023-04-23T05:43:27.202Z,10.34
2023-04-23T05:45:54.284Z,10.60
2023-04-23T05:48:21.141Z,10.82
2023-04-23T05:50:49.451Z,11.05
2023-04-23T05:53:18.636Z,11.25
2023-04-23T05:55:45.620Z,11.47
2023-04-23T05:58:12.379Z,11.70
2023-04-23T06:00:40.974Z,11.92
2023-04-23T06:03:07.916Z,12.15
2023-04-23T06:05:34.789Z,12.35
2023-04-23T06:08:01.492Z,12.46
2023-04-23T06:10:28.287Z,12.60
2023-04-23T06:12:55.893Z,12.91
2023-04-23T06:15:27.394Z,13.03
2023-04-23T06:17:54.938Z,13.26
2023-04-23T06:20:22.565Z,13.54
2023-04-23T06:22:49.269Z,13.83
2023-04-23T06:25:16.199Z,13.96
2023-04-23T06:27:43.090Z,14.14
2023-04-23T06:30:10.195Z,14.26
2023-04-23T06:32:38.346Z,14.49
2023-04-23T06:35:06.819Z,14.66
2023-04-23T06:37:33.967Z,14.97
2023-04-23T06:40:00.930Z,15.14
2023-04-23T06:42:28.150Z,15.47
2023-04-23T06:44:55.676Z,15.80
2023-04-23T06:47:22.328Z,16.11
2023-04-23T06:49:49.332Z,16.31
2023-04-23T06:52:16.342Z,16.39
2023-04-23T06:54:43.814Z,16.59
2023-04-23T06:57:10.676Z,16.78
2023-04-23T06:59:38.010Z,16.91
2023-04-23T07:02:04.858Z,17.15
2023-04-23T07:04:32.094Z,17.39
2023-04-23T07:07:00.458Z,17.63
2023-04-23T07:09:28.858Z,17.77
2023-04-23T07:11:55.783Z,17.65
2023-04-23T07:14:22.784Z,17.67
2023-04-23T07:16:49.677Z,17.73
2023-04-23T07:19:16.380Z,18.02
2023-04-23T07:21:43.275Z,18.22
2023-04-23T07:24:10.206Z,18.43
2023-04-23T07:26:37.197Z,18.60
2023-04-23T07:29:08.204Z,18.87
2023-04-23T07:31:35.355Z,18.85
2023-04-23T07:34:02.801Z,19.08
2023-04-23T07:36:29.814Z,19.03
2023-04-23T07:38:56.530Z,18.94
2023-04-23T07:41:23.433Z,18.76
2023-04-23T07:43:50.218Z,18.94
2023-04-23T07:46:17.050Z,19.03
2023-04-23T07:48:43.860Z,19.13
2023-04-23T07:51:10.746Z,19.12
2023-04-23T07:53:37.510Z,19.17
2023-04-23T07:56:06.605Z,19.02
2023-04-23T07:58:36.107Z,18.79
2023-04-23T08:01:02.997Z,18.53
2023-04-23T08:03:29.986Z,18.20
2023-04-23T08:05:58.540Z,17.94
2023-04-23T08:08:25.716Z,17.66
2023-04-23T08:10:52.670Z,17.54
2023-04-23T08:13:22.594Z,17.46
2023-04-23T08:15:49.386Z,17.40
2023-04-23T08:18:16.163Z,17.50
2023-04-23T08:20:42.980Z,17.84
2023-04-23T08:23:09.939Z,18.18
2023-04-23T08:25:36.629Z,18.56
2023-04-23T08:28:04.072Z,18.77
2023-04-23T08:30:31.278Z,19.21
2023-04-23T08:32:58.424Z,19.66
2023-04-23T08:35:25.898Z,19.99
2023-04-23T08:37:52.807Z,19.99
2023-04-23T08:40:19.796Z,19.99
2023-04-23T08:43:01.754Z,20.06
2023-04-23T08:45:30.723Z,20.27
2023-04-23T08:48:02.636Z,20.45
2023-04-23T08:50:31.323Z,20.70
2023-04-23T08:52:58.669Z,20.76
2023-04-23T08:55:25.940Z,20.77
2023-04-23T08:57:52.697Z,20.95
2023-04-23T09:00:23.175Z,21.05
2023-04-23T09:02:50.806Z,21.28
2023-04-23T09:05:18.546Z,21.56
2023-04-23T09:07:45.668Z,21.70
2023-04-23T09:10:17.648Z,21.64
2023-04-23T09:12:45.594Z,21.54
2023-04-23T09:15:13.521Z,21.46
2023-04-23T09:17:44.018Z,21.30
2023-04-23T09:20:12.322Z,20.88
2023-04-23T09:22:47.882Z,20.35
2023-04-23T09:25:18.352Z,19.91
2023-04-23T09:27:46.503Z,19.43
2023-04-23T09:30:14.981Z,19.25
2023-04-23T09:32:43.082Z,18.99
2023-04-23T09:35:13.605Z,18.79
2023-04-23T09:37:50.742Z,18.55
2023-04-23T09:40:20.272Z,18.34
2023-04-23T09:42:54.859Z,18.26
2023-04-23T09:45:22.245Z,18.25
2023-04-23T09:47:51.873Z,18.14
2023-04-23T09:50:19.884Z,18.15
2023-04-23T09:52:55.360Z,18.18
2023-04-23T09:55:48.339Z,18.20
2023-04-23T09:58:15.951Z,18.24
2023-04-23T10:00:43.101Z,18.28
2023-04-23T10:03:11.200Z,18.24
2023-04-23T10:08:16.177Z,18.36
2023-04-23T10:13:16.619Z,18.36
2023-04-23T10:15:46.614Z,18.31
2023-04-23T10:18:15.200Z,18.08
2023-04-23T10:20:43.251Z,17.97
2023-04-23T10:23:13.144Z,17.94
2023-04-23T10:25:41.446Z,17.95
2023-04-23T10:28:12.002Z,17.88
2023-04-23T10:30:39.416Z,17.96
2023-04-23T10:33:15.722Z,17.98
2023-04-23T10:35:50.046Z,18.03
2023-04-23T10:38:17.051Z,18.08
2023-04-23T10:40:47.096Z,18.34
2023-04-23T10:43:14.707Z,18.50
2023-04-23T10:45:41.445Z,18.82
2023-04-23T10:48:09.278Z,19.14
2023-04-23T10:50:37.815Z,19.12
2023-04-23T10:53:05.467Z,19.09
2023-04-23T10:55:32.893Z,18.93
2023-04-23T10:58:07.525Z,18.92
2023-04-23T11:00:54.630Z,18.98
2023-04-23T11:04:07.811Z,19.06
2023-04-23T11:07:13.852Z,19.18
2023-04-23T11:09:48.931Z,19.27
2023-04-23T11:12:27.744Z,19.44
2023-04-23T11:14:55.902Z,19.61
2023-04-23T11:17:24.769Z,19.65
2023-04-23T11:20:11.546Z,19.71
2023-04-23T11:22:45.957Z,19.73
2023-04-23T11:25:13.764Z,19.71
2023-04-23T11:27:44.775Z,19.94
2023-04-23T11:30:16.781Z,20.43
2023-04-23T11:32:49.752Z,20.82
2023-04-23T11:35:18.749Z,21.09
2023-04-23T11:37:48.398Z,21.28
2023-04-23T11:40:20.417Z,21.57
2023-04-23T11:42:53.799Z,21.63
2023-04-23T11:45:23.508Z,21.67
2023-04-23T11:47:56.201Z,21.59
2023-04-23T11:50:33.675Z,21.56
2023-04-23T11:53:16.103Z,21.46
2023-04-23T11:55:48.250Z,21.30
2023-04-23T11:58:19.531Z,21.46
2023-04-23T12:01:02.828Z,21.50
2023-04-23T12:03:47.721Z,21.57
2023-04-23T12:06:38.074Z,21.58
2023-04-23T12:12:00.139Z,21.31
2023-04-23T12:14:30.842Z,21.48
2023-04-23T12:16:59.634Z,21.82
2023-04-23T12:19:33.873Z,22.05
2023-04-23T12:22:02.861Z,22.01
2023-04-23T12:24:47.534Z,22.06
2023-04-23T12:27:16.924Z,22.10
2023-04-23T12:29:43.765Z,22.15
2023-04-23T12:32:16.102Z,22.28
2023-04-23T12:35:14.358Z,22.04
2023-04-23T12:37:43.712Z,21.99
2023-04-23T12:40:11.307Z,21.78
2023-04-23T12:42:38.286Z,21.61
2023-04-23T12:45:14.813Z,21.56
2023-04-23T12:47:43.060Z,21.83
2023-04-23T12:50:29.887Z,21.79
2023-04-23T12:52:59.676Z,21.76
2023-04-23T12:55:26.700Z,21.89
2023-04-23T12:58:09.026Z,22.06
2023-04-23T13:01:20.433Z,22.27
2023-04-23T13:03:49.659Z,22.24
2023-04-23T13:06:17.259Z,22.15
2023-04-23T13:08:44.180Z,22.23
2023-04-23T13:11:11.404Z,22.18
2023-04-23T13:13:43.182Z,22.24
2023-04-23T13:16:10.466Z,22.23
2023-04-23T13:18:37.370Z,22.09
2023-04-23T13:21:04.228Z,21.90
2023-04-23T13:23:31.001Z,21.76
2023-04-23T13:25:58.039Z,21.55
2023-04-23T13:28:25.367Z,21.32
2023-04-23T13:30:52.201Z,21.11
2023-04-23T13:33:19.389Z,20.98
2023-04-23T13:35:46.302Z,20.99
2023-04-23T13:38:13.276Z,20.66
2023-04-23T13:40:40.333Z,20.44
2023-04-23T13:43:07.322Z,20.29
2023-04-23T13:45:34.183Z,20.37
2023-04-23T13:48:02.556Z,20.42
2023-04-23T13:50:29.396Z,20.43
2023-04-23T13:52:56.620Z,20.45
2023-04-23T13:55:23.694Z,20.47
2023-04-23T13:57:50.568Z,20.54
2023-04-23T14:00:18.318Z,20.53
2023-04-23T14:02:45.335Z,20.28
2023-04-23T14:05:12.260Z,20.36
2023-04-23T14:07:39.119Z,20.34
2023-04-23T14:10:06.542Z,19.97
2023-04-23T14:12:33.511Z,19.63
2023-04-23T14:15:00.335Z,19.33
2023-04-23T14:17:27.118Z,19.16
2023-04-23T14:19:54.088Z,19.30
2023-04-23T14:22:21.125Z,19.27
2023-04-23T14:24:51.255Z,19.01
2023-04-23T14:27:18.103Z,18.73
2023-04-23T14:29:52.454Z,18.44
2023-04-23T14:32:19.514Z,18.20
2023-04-23T14:34:46.592Z,18.20
2023-04-23T14:37:13.514Z,18.10
2023-04-23T14:39:43.718Z,18.06
2023-04-23T14:42:10.726Z,18.06
2023-04-23T14:44:37.860Z,17.91
2023-04-23T14:47:07.655Z,17.77
2023-04-23T14:49:34.496Z,17.76
2023-04-23T14:52:03.326Z,17.85
2023-04-23T14:54:30.097Z,17.82
2023-04-23T14:57:00.005Z,17.92
2023-04-23T14:59:26.889Z,17.96
2023-04-23T15:01:54.236Z,17.93
2023-04-23T15:04:21.345Z,17.97
2023-04-23T15:06:48.383Z,17.97
2023-04-23T15:09:20.135Z,17.97
2023-04-23T15:11:47.180Z,17.83
2023-04-23T15:14:26.818Z,17.86
2023-04-23T15:16:53.981Z,17.99
2023-04-23T15:19:21.278Z,18.10
2023-04-23T15:21:48.855Z,18.04
2023-04-23T15:24:17.176Z,17.98
2023-04-23T15:26:46.212Z,17.99
2023-04-23T15:29:13.850Z,18.00
2023-04-23T15:31:41.829Z,18.04
2023-04-23T15:34:09.833Z,18.03
2023-04-23T15:36:38.184Z,18.10
2023-04-23T15:39:06.569Z,18.02
2023-04-23T15:41:34.694Z,18.00
2023-04-23T15:44:01.996Z,18.03
2023-04-23T15:46:28.774Z,18.00
2023-04-23T15:48:56.336Z,17.89
2023-04-23T15:51:23.148Z,17.86
2023-04-23T15:53:49.797Z,17.89
2023-04-23T15:56:16.407Z,17.77
2023-04-23T15:58:43.261Z,17.64
2023-04-23T16:01:10.101Z,17.34
2023-04-23T16:03:37.429Z,17.30
2023-04-23T16:06:05.184Z,17.05
2023-04-23T16:08:38.072Z,16.93
2023-04-23T16:11:05.105Z,16.71
2023-04-23T16:13:32.011Z,16.57
2023-04-23T16:15:59.104Z,16.58
2023-04-23T16:18:26.000Z,16.45
2023-04-23T16:20:52.704Z,16.25
2023-04-23T16:23:19.935Z,16.24
2023-04-23T16:25:46.797Z,16.16
2023-04-23T16:28:14.034Z,16.02
2023-04-23T16:30:40.826Z,16.02
2023-04-23T16:33:07.949Z,15.86
2023-04-23T16:35:34.979Z,15.81
2023-04-23T16:38:02.313Z,15.78
2023-04-23T16:40:29.430Z,15.70
2023-04-23T16:42:56.334Z,15.61
2023-04-23T16:45:23.606Z,15.54
2023-04-23T16:47:50.789Z,15.44
2023-04-23T16:50:17.892Z,15.37
2023-04-23T16:52:44.628Z,15.19
2023-04-23T16:55:11.343Z,15.05
2023-04-23T16:57:38.298Z,14.98
2023-04-23T17:00:05.905Z,14.81
2023-04-23T17:02:32.912Z,14.66
2023-04-23T17:05:00.140Z,14.52
2023-04-23T17:07:26.894Z,14.34
2023-04-23T17:09:54.174Z,14.23
2023-04-23T17:12:21.834Z,14.08
2023-04-23T17:14:49.013Z,13.90
2023-04-23T17:17:16.014Z,13.84
2023-04-23T17:19:43.308Z,13.72
2023-04-23T17:22:10.813Z,13.54
2023-04-23T17:24:39.148Z,13.39
2023-04-23T17:27:06.521Z,13.24
2023-04-23T17:29:33.441Z,13.10
2023-04-23T17:32:01.498Z,12.97
2023-04-23T17:34:28.275Z,12.86
2023-04-23T17:36:55.186Z,12.75
2023-04-23T17:39:23.838Z,12.63
2023-04-23T17:41:50.601Z,12.45
2023-04-23T17:44:17.766Z,12.33
2023-04-23T17:46:44.492Z,12.20
2023-04-23T17:49:11.186Z,12.08
2023-04-23T17:51:38.013Z,11.95
2023-04-23T17:54:05.381Z,11.80
2023-04-23T17:56:32.743Z,11.74
2023-04-23T17:58:59.480Z,11.63
2023-04-23T18:01:26.992Z,11.47
2023-04-23T18:03:56.062Z,11.39
2023-04-23T18:06:23.287Z,11.25
2023-04-23T18:08:50.395Z,11.13
2023-04-23T18:11:18.433Z,11.03
2023-04-23T18:13:45.632Z,10.93
2023-04-23T18:16:12.631Z,10.85
2023-04-23T18:18:39.319Z,10.76
2023-04-23T18:21:06.139Z,10.71
2023-04-23T18:23:35.933Z,10.60
2023-04-23T18:26:02.805Z,10.54
2023-04-23T18:28:29.622Z,10.50
2023-04-23T18:31:02.330Z,10.37
2023-04-23T18:33:52.714Z,10.37
2023-04-23T18:36:24.229Z,10.23
2023-04-23T18:38:51.980Z,10.25
2023-04-23T18:41:18.816Z,10.19
2023-04-23T18:43:45.649Z,10.14
2023-04-23T18:46:13.083Z,10.08
2023-04-23T18:48:46.256Z,10.12
2023-04-23T18:51:19.446Z,10.12
2023-04-23T18:53:46.895Z,10.01
2023-04-23T18:56:13.812Z,9.98
2023-04-23T18:58:43.214Z,9.97
2023-04-23T19:01:10.267Z,9.92
2023-04-23T19:03:37.310Z,9.85
2023-04-23T19:06:07.992Z,9.79
2023-04-23T19:08:35.712Z,9.75
2023-04-23T19:11:03.226Z,9.62
2023-04-23T19:13:30.177Z,9.51
2023-04-23T19:16:00.192Z,9.56
2023-04-23T19:18:27.706Z,9.50
2023-04-23T19:20:54.709Z,9.38
2023-04-23T19:23:21.537Z,9.40
2023-04-23T19:25:48.270Z,9.38
2023-04-23T19:28:15.436Z,9.32
2023-04-23T19:30:42.164Z,9.25
2023-04-23T19:33:09.148Z,9.24
2023-04-23T19:35:39.334Z,9.21
2023-04-23T19:38:07.218Z,9.12
2023-04-23T19:40:34.179Z,9.05
2023-04-23T19:43:01.372Z,9.01
2023-04-23T19:45:30.108Z,9.00
2023-04-23T19:47:57.329Z,8.98
2023-04-23T19:50:25.028Z,8.98
2023-04-23T19:52:52.243Z,8.89
2023-04-23T19:55:22.312Z,8.84
2023-04-23T19:57:49.054Z,8.83
2023-04-23T20:00:17.169Z,8.74
2023-04-23T20:02:44.419Z,8.71
2023-04-23T20:05:11.328Z,8.73
2023-04-23T20:07:38.932Z,8.64
2023-04-23T20:10:06.311Z,8.57
2023-04-23T20:12:34.190Z,8.55
2023-04-23T20:15:00.910Z,8.59
2023-04-23T20:17:29.671Z,8.44
2023-04-23T20:20:01.966Z,8.39
2023-04-23T20:22:29.531Z,8.34
2023-04-23T20:24:57.426Z,8.32
2023-04-23T20:27:24.366Z,8.26
2023-04-23T20:29:51.575Z,8.21
2023-04-23T20:32:18.447Z,8.19
2023-04-23T20:34:45.335Z,8.20
2023-04-23T20:37:12.580Z,8.18
2023-04-23T20:39:39.426Z,8.20
2023-04-23T20:42:09.123Z,8.15
2023-04-23T20:44:36.423Z,8.08
2023-04-23T20:47:08.525Z,8.06
2023-04-23T20:49:35.313Z,8.03
2023-04-23T20:52:04.680Z,7.98
2023-04-23T20:54:31.799Z,7.91
2023-04-23T20:56:58.752Z,7.86
2023-04-23T20:59:25.673Z,7.84
2023-04-23T21:01:53.037Z,7.76
2023-04-23T21:04:20.052Z,7.80
2023-04-23T21:06:51.208Z,7.78
2023-04-23T21:09:18.372Z,7.79
2023-04-23T21:11:45.059Z,7.80
2023-04-23T21:14:12.108Z,7.71
2023-04-23T21:16:40.295Z,7.73
2023-04-23T21:19:07.133Z,7.68
2023-04-23T21:21:34.304Z,7.69
2023-04-23T21:24:01.189Z,7.68
2023-04-23T21:26:31.659Z,7.67
2023-04-23T21:28:58.506Z,7.65
2023-04-23T21:31:45.414Z,7.65
2023-04-23T21:34:12.288Z,7.54
2023-04-23T21:36:39.196Z,7.56
2023-04-23T21:39:06.782Z,7.49
2023-04-23T21:41:33.678Z,7.50
2023-04-23T21:44:00.526Z,7.51
2023-04-23T21:46:27.679Z,7.36
2023-04-23T21:48:54.672Z,7.32
2023-04-23T21:51:28.163Z,7.31
2023-04-23T21:53:54.814Z,7.29
2023-04-23T21:56:21.871Z,7.32
2023-04-23T21:58:48.818Z,7.34
2023-04-23T22:01:16.617Z,7.41
2023-04-23T22:03:47.152Z,7.48
2023-04-23T22:06:18.735Z,7.53
2023-04-23T22:08:49.300Z,7.48
2023-04-23T22:11:17.566Z,7.43
2023-04-23T22:13:44.216Z,7.40
2023-04-23T22:16:26.792Z,7.48
2023-04-23T22:18:55.529Z,7.52
2023-04-23T22:21:22.338Z,7.49
2023-04-23T22:23:49.094Z,7.54
2023-04-23T22:26:15.947Z,7.52
2023-04-23T22:28:44.041Z,7.49
2023-04-23T22:31:11.228Z,7.54
2023-04-23T22:33:38.051Z,7.57
2023-04-23T22:36:05.571Z,7.58
2023-04-23T22:38:32.409Z,7.46
2023-04-23T22:40:59.724Z,7.44
2023-04-23T22:43:26.841Z,7.49
2023-04-23T22:45:53.560Z,7.44
2023-04-23T22:48:21.712Z,7.40
2023-04-23T22:50:51.243Z,7.55
2023-04-23T22:53:19.876Z,7.55
2023-04-23T22:55:46.771Z,7.53
2023-04-23T22:58:13.505Z,7.56
2023-04-23T23:00:40.466Z,7.56
2023-04-23T23:03:07.362Z,7.63
2023-04-23T23:05:34.595Z,7.70
2023-04-23T23:08:01.438Z,7.85
2023-04-23T23:10:29.006Z,8.00
2023-04-23T23:12:56.166Z,8.05
2023-04-23T23:15:22.962Z,8.19
2023-04-23T23:17:49.870Z,8.21
2023-04-23T23:20:16.931Z,8.39
2023-04-23T23:22:43.893Z,8.38
2023-04-23T23:25:11.023Z,8.40
2023-04-23T23:27:37.841Z,8.35
2023-04-23T23:30:10.973Z,8.30
2023-04-23T23:32:41.047Z,8.27
2023-04-23T23:35:08.328Z,8.24
2023-04-23T23:37:35.611Z,8.25
2023-04-23T23:40:02.649Z,8.22
2023-04-23T23:42:29.406Z,8.21
2023-04-23T23:44:56.305Z,8.19
2023-04-23T23:47:23.006Z,8.14
2023-04-23T23:49:49.786Z,8.15
2023-04-23T23:52:16.891Z,8.12
2023-04-23T23:54:43.622Z,8.08
2023-04-23T23:57:10.998Z,8.05
2023-04-23T23:59:37.688Z,8.05
